sensor_id;sensor_type;location;lat;lon;timestamp;P1;durP1;ratioP1;P2;durP2;ratioP2
6197;SDS011;3132;42.622;23.328;2024-03-02T00:01:48;28.53;;;21.60;;
6197;SDS011;3132;42.622;23.328;2024-03-02T00:04:14;28.40;;;22.17;;
6197;SDS011;3132;42.622;23.328;2024-03-02T00:06:39;28.47;;;22.03;;
6197;SDS011;3132;42.622;23.328;2024-03-02T00:09:04;25.63;;;20.20;;
6197;SDS011;3132;42.622;23.328;2024-03-02T00:11:30;34.87;;;23.33;;
6197;SDS011;3132;42.622;23.328;2024-03-02T00:13:55;31.80;;;24.33;;
6197;SDS011;3132;42.622;23.328;2024-03-02T00:16:20;35.20;;;23.00;;
6197;SDS011;3132;42.622;23.328;2024-03-02T00:18:46;32.83;;;23.77;;
6197;SDS011;3132;42.622;23.328;2024-03-02T00:21:12;36.57;;;24.60;;
6197;SDS011;3132;42.622;23.328;2024-03-02T00:23:39;37.03;;;25.03;;
6197;SDS011;3132;42.622;23.328;2024-03-02T00:26:05;37.17;;;24.43;;
6197;SDS011;3132;42.622;23.328;2024-03-02T00:28:34;36.63;;;25.03;;
6197;SDS011;3132;42.622;23.328;2024-03-02T00:31:04;38.77;;;23.97;;
6197;SDS011;3132;42.622;23.328;2024-03-02T00:36:05;39.13;;;24.37;;
6197;SDS011;3132;42.622;23.328;2024-03-02T00:38:32;36.90;;;25.00;;
6197;SDS011;3132;42.622;23.328;2024-03-02T00:40:59;36.40;;;25.17;;
6197;SDS011;3132;42.622;23.328;2024-03-02T00:46:06;37.10;;;24.63;;
6197;SDS011;3132;42.622;23.328;2024-03-02T00:48:31;35.20;;;26.77;;
6197;SDS011;3132;42.622;23.328;2024-03-02T00:51:00;35.00;;;23.60;;
6197;SDS011;3132;42.622;23.328;2024-03-02T00:53:26;40.70;;;25.00;;
6197;SDS011;3132;42.622;23.328;2024-03-02T00:55:52;32.47;;;25.63;;
6197;SDS011;3132;42.622;23.328;2024-03-02T00:58:17;37.03;;;23.87;;
6197;SDS011;3132;42.622;23.328;2024-03-02T01:00:43;30.73;;;23.23;;
6197;SDS011;3132;42.622;23.328;2024-03-02T01:03:08;31.20;;;21.47;;
6197;SDS011;3132;42.622;23.328;2024-03-02T01:05:35;27.53;;;20.23;;
6197;SDS011;3132;42.622;23.328;2024-03-02T01:08:01;24.93;;;20.17;;
6197;SDS011;3132;42.622;23.328;2024-03-02T01:10:26;23.67;;;19.30;;
6197;SDS011;3132;42.622;23.328;2024-03-02T01:12:51;27.50;;;17.87;;
6197;SDS011;3132;42.622;23.328;2024-03-02T01:15:17;23.43;;;18.77;;
6197;SDS011;3132;42.622;23.328;2024-03-02T01:17:42;27.60;;;18.70;;
6197;SDS011;3132;42.622;23.328;2024-03-02T01:20:08;24.73;;;18.60;;
6197;SDS011;3132;42.622;23.328;2024-03-02T01:22:34;26.17;;;17.87;;
6197;SDS011;3132;42.622;23.328;2024-03-02T01:25:00;30.20;;;20.63;;
6197;SDS011;3132;42.622;23.328;2024-03-02T01:27:26;22.93;;;18.23;;
6197;SDS011;3132;42.622;23.328;2024-03-02T01:29:52;30.93;;;21.93;;
6197;SDS011;3132;42.622;23.328;2024-03-02T01:32:17;25.17;;;19.40;;
6197;SDS011;3132;42.622;23.328;2024-03-02T01:34:43;29.63;;;22.10;;
6197;SDS011;3132;42.622;23.328;2024-03-02T01:37:08;35.50;;;24.17;;
6197;SDS011;3132;42.622;23.328;2024-03-02T01:39:35;40.20;;;25.37;;
6197;SDS011;3132;42.622;23.328;2024-03-02T01:42:00;31.97;;;21.93;;
6197;SDS011;3132;42.622;23.328;2024-03-02T01:44:26;32.07;;;21.87;;
6197;SDS011;3132;42.622;23.328;2024-03-02T01:46:51;28.83;;;19.77;;
6197;SDS011;3132;42.622;23.328;2024-03-02T01:49:16;30.53;;;20.87;;
6197;SDS011;3132;42.622;23.328;2024-03-02T01:51:42;29.80;;;21.13;;
6197;SDS011;3132;42.622;23.328;2024-03-02T01:54:07;27.10;;;21.07;;
6197;SDS011;3132;42.622;23.328;2024-03-02T01:56:32;28.30;;;21.43;;
6197;SDS011;3132;42.622;23.328;2024-03-02T01:58:58;28.53;;;21.07;;
6197;SDS011;3132;42.622;23.328;2024-03-02T02:01:24;33.23;;;22.10;;
6197;SDS011;3132;42.622;23.328;2024-03-02T02:03:49;30.97;;;21.57;;
6197;SDS011;3132;42.622;23.328;2024-03-02T02:06:14;28.33;;;21.27;;
6197;SDS011;3132;42.622;23.328;2024-03-02T02:08:40;34.03;;;21.40;;
6197;SDS011;3132;42.622;23.328;2024-03-02T02:11:05;32.47;;;22.60;;
6197;SDS011;3132;42.622;23.328;2024-03-02T02:13:31;34.73;;;21.93;;
6197;SDS011;3132;42.622;23.328;2024-03-02T02:16:03;26.73;;;20.17;;
6197;SDS011;3132;42.622;23.328;2024-03-02T02:18:30;28.57;;;21.13;;
6197;SDS011;3132;42.622;23.328;2024-03-02T02:20:55;28.43;;;20.83;;
6197;SDS011;3132;42.622;23.328;2024-03-02T02:23:20;24.63;;;20.27;;
6197;SDS011;3132;42.622;23.328;2024-03-02T02:25:46;26.03;;;20.33;;
6197;SDS011;3132;42.622;23.328;2024-03-02T02:28:11;28.93;;;21.03;;
6197;SDS011;3132;42.622;23.328;2024-03-02T02:30:36;33.00;;;22.57;;
6197;SDS011;3132;42.622;23.328;2024-03-02T02:33:02;28.77;;;20.67;;
6197;SDS011;3132;42.622;23.328;2024-03-02T02:35:27;26.10;;;20.43;;
6197;SDS011;3132;42.622;23.328;2024-03-02T02:37:54;27.77;;;20.57;;
6197;SDS011;3132;42.622;23.328;2024-03-02T02:40:22;27.37;;;21.80;;
6197;SDS011;3132;42.622;23.328;2024-03-02T02:42:47;31.13;;;21.43;;
6197;SDS011;3132;42.622;23.328;2024-03-02T02:45:13;32.03;;;20.87;;
6197;SDS011;3132;42.622;23.328;2024-03-02T02:47:39;29.63;;;20.60;;
6197;SDS011;3132;42.622;23.328;2024-03-02T02:50:08;31.93;;;21.90;;
6197;SDS011;3132;42.622;23.328;2024-03-02T02:52:34;29.10;;;21.37;;
6197;SDS011;3132;42.622;23.328;2024-03-02T02:55:02;34.77;;;21.07;;
6197;SDS011;3132;42.622;23.328;2024-03-02T02:57:29;29.43;;;21.97;;
6197;SDS011;3132;42.622;23.328;2024-03-02T02:59:56;33.27;;;22.17;;
6197;SDS011;3132;42.622;23.328;2024-03-02T03:02:22;27.87;;;21.10;;
6197;SDS011;3132;42.622;23.328;2024-03-02T03:04:47;31.57;;;21.93;;
6197;SDS011;3132;42.622;23.328;2024-03-02T03:07:13;27.50;;;20.43;;
6197;SDS011;3132;42.622;23.328;2024-03-02T03:09:38;30.33;;;23.07;;
6197;SDS011;3132;42.622;23.328;2024-03-02T03:12:04;26.77;;;20.73;;
6197;SDS011;3132;42.622;23.328;2024-03-02T03:14:29;27.60;;;21.90;;
6197;SDS011;3132;42.622;23.328;2024-03-02T03:16:54;31.87;;;21.90;;
6197;SDS011;3132;42.622;23.328;2024-03-02T03:19:20;27.13;;;20.43;;
6197;SDS011;3132;42.622;23.328;2024-03-02T03:21:45;33.40;;;23.53;;
6197;SDS011;3132;42.622;23.328;2024-03-02T03:24:10;33.80;;;22.67;;
6197;SDS011;3132;42.622;23.328;2024-03-02T03:26:36;35.87;;;24.97;;
6197;SDS011;3132;42.622;23.328;2024-03-02T03:29:02;39.57;;;25.37;;
6197;SDS011;3132;42.622;23.328;2024-03-02T03:31:27;38.03;;;25.70;;
6197;SDS011;3132;42.622;23.328;2024-03-02T03:33:53;38.13;;;24.80;;
6197;SDS011;3132;42.622;23.328;2024-03-02T03:36:19;38.60;;;25.60;;
6197;SDS011;3132;42.622;23.328;2024-03-02T03:38:44;42.10;;;25.33;;
6197;SDS011;3132;42.622;23.328;2024-03-02T03:41:09;43.10;;;27.07;;
6197;SDS011;3132;42.622;23.328;2024-03-02T03:43:35;42.07;;;26.80;;
6197;SDS011;3132;42.622;23.328;2024-03-02T03:46:01;42.90;;;25.87;;
6197;SDS011;3132;42.622;23.328;2024-03-02T03:48:27;38.23;;;23.83;;
6197;SDS011;3132;42.622;23.328;2024-03-02T03:50:56;38.43;;;26.03;;
6197;SDS011;3132;42.622;23.328;2024-03-02T03:53:22;40.33;;;25.27;;
6197;SDS011;3132;42.622;23.328;2024-03-02T03:55:47;39.93;;;24.93;;
6197;SDS011;3132;42.622;23.328;2024-03-02T03:58:14;38.00;;;26.07;;
6197;SDS011;3132;42.622;23.328;2024-03-02T04:00:41;40.20;;;25.70;;
6197;SDS011;3132;42.622;23.328;2024-03-02T04:03:07;39.80;;;25.83;;
6197;SDS011;3132;42.622;23.328;2024-03-02T04:05:32;37.40;;;25.60;;
6197;SDS011;3132;42.622;23.328;2024-03-02T04:07:58;38.37;;;26.07;;
6197;SDS011;3132;42.622;23.328;2024-03-02T04:10:23;37.10;;;25.33;;
6197;SDS011;3132;42.622;23.328;2024-03-02T04:12:49;39.57;;;25.63;;
6197;SDS011;3132;42.622;23.328;2024-03-02T04:15:15;38.43;;;24.93;;
6197;SDS011;3132;42.622;23.328;2024-03-02T04:17:41;40.03;;;25.07;;
6197;SDS011;3132;42.622;23.328;2024-03-02T04:20:06;39.40;;;26.07;;
6197;SDS011;3132;42.622;23.328;2024-03-02T04:22:32;32.90;;;24.83;;
6197;SDS011;3132;42.622;23.328;2024-03-02T04:24:59;38.40;;;24.13;;
6197;SDS011;3132;42.622;23.328;2024-03-02T04:27:25;39.27;;;25.73;;
6197;SDS011;3132;42.622;23.328;2024-03-02T04:29:51;36.13;;;24.80;;
6197;SDS011;3132;42.622;23.328;2024-03-02T04:32:16;35.50;;;24.17;;
6197;SDS011;3132;42.622;23.328;2024-03-02T04:34:42;36.47;;;25.10;;
6197;SDS011;3132;42.622;23.328;2024-03-02T04:37:07;33.37;;;23.03;;
6197;SDS011;3132;42.622;23.328;2024-03-02T04:39:34;29.17;;;22.03;;
6197;SDS011;3132;42.622;23.328;2024-03-02T04:42:00;32.90;;;23.53;;
6197;SDS011;3132;42.622;23.328;2024-03-02T04:44:25;34.00;;;23.60;;
6197;SDS011;3132;42.622;23.328;2024-03-02T04:46:51;33.70;;;24.03;;
6197;SDS011;3132;42.622;23.328;2024-03-02T04:49:16;36.43;;;25.07;;
6197;SDS011;3132;42.622;23.328;2024-03-02T04:51:41;34.27;;;23.23;;
6197;SDS011;3132;42.622;23.328;2024-03-02T04:54:07;33.77;;;24.07;;
6197;SDS011;3132;42.622;23.328;2024-03-02T04:56:32;36.63;;;23.23;;
6197;SDS011;3132;42.622;23.328;2024-03-02T04:58:57;36.10;;;22.37;;
6197;SDS011;3132;42.622;23.328;2024-03-02T05:01:23;35.47;;;22.73;;
6197;SDS011;3132;42.622;23.328;2024-03-02T05:03:48;28.20;;;21.87;;
6197;SDS011;3132;42.622;23.328;2024-03-02T05:06:13;34.40;;;24.63;;
6197;SDS011;3132;42.622;23.328;2024-03-02T05:08:39;31.87;;;22.83;;
6197;SDS011;3132;42.622;23.328;2024-03-02T05:11:04;28.17;;;22.70;;
6197;SDS011;3132;42.622;23.328;2024-03-02T05:13:48;35.17;;;23.10;;
6197;SDS011;3132;42.622;23.328;2024-03-02T05:16:13;36.00;;;23.13;;
6197;SDS011;3132;42.622;23.328;2024-03-02T05:18:39;31.00;;;22.07;;
6197;SDS011;3132;42.622;23.328;2024-03-02T05:21:05;30.33;;;23.17;;
6197;SDS011;3132;42.622;23.328;2024-03-02T05:23:30;29.87;;;21.77;;
6197;SDS011;3132;42.622;23.328;2024-03-02T05:25:56;30.60;;;22.93;;
6197;SDS011;3132;42.622;23.328;2024-03-02T05:28:21;32.30;;;23.33;;
6197;SDS011;3132;42.622;23.328;2024-03-02T05:30:46;35.83;;;23.07;;
6197;SDS011;3132;42.622;23.328;2024-03-02T05:33:12;36.50;;;23.13;;
6197;SDS011;3132;42.622;23.328;2024-03-02T05:35:37;34.57;;;24.10;;
6197;SDS011;3132;42.622;23.328;2024-03-02T05:38:03;30.70;;;22.77;;
6197;SDS011;3132;42.622;23.328;2024-03-02T05:40:28;28.37;;;22.53;;
6197;SDS011;3132;42.622;23.328;2024-03-02T05:42:54;27.77;;;20.70;;
6197;SDS011;3132;42.622;23.328;2024-03-02T05:45:19;33.50;;;22.90;;
6197;SDS011;3132;42.622;23.328;2024-03-02T05:47:44;36.73;;;23.20;;
6197;SDS011;3132;42.622;23.328;2024-03-02T05:50:10;34.77;;;22.97;;
6197;SDS011;3132;42.622;23.328;2024-03-02T05:52:35;37.73;;;25.70;;
6197;SDS011;3132;42.622;23.328;2024-03-02T05:55:00;36.17;;;25.37;;
6197;SDS011;3132;42.622;23.328;2024-03-02T05:57:26;38.23;;;24.80;;
6197;SDS011;3132;42.622;23.328;2024-03-02T06:00:09;37.40;;;26.90;;
6197;SDS011;3132;42.622;23.328;2024-03-02T06:02:38;35.93;;;25.77;;
6197;SDS011;3132;42.622;23.328;2024-03-02T06:05:05;40.30;;;23.93;;
6197;SDS011;3132;42.622;23.328;2024-03-02T06:07:32;35.43;;;24.17;;
6197;SDS011;3132;42.622;23.328;2024-03-02T06:09:57;35.10;;;24.70;;
6197;SDS011;3132;42.622;23.328;2024-03-02T06:12:23;34.10;;;24.87;;
6197;SDS011;3132;42.622;23.328;2024-03-02T06:14:49;33.80;;;22.83;;
6197;SDS011;3132;42.622;23.328;2024-03-02T06:17:14;33.40;;;21.67;;
6197;SDS011;3132;42.622;23.328;2024-03-02T06:19:39;32.57;;;23.13;;
6197;SDS011;3132;42.622;23.328;2024-03-02T06:22:05;37.23;;;23.27;;
6197;SDS011;3132;42.622;23.328;2024-03-02T06:24:30;29.33;;;22.57;;
6197;SDS011;3132;42.622;23.328;2024-03-02T06:26:56;33.50;;;21.97;;
6197;SDS011;3132;42.622;23.328;2024-03-02T06:29:21;31.53;;;21.23;;
6197;SDS011;3132;42.622;23.328;2024-03-02T06:31:46;29.50;;;21.77;;
6197;SDS011;3132;42.622;23.328;2024-03-02T06:34:12;28.17;;;21.47;;
6197;SDS011;3132;42.622;23.328;2024-03-02T06:36:38;29.87;;;22.53;;
6197;SDS011;3132;42.622;23.328;2024-03-02T06:39:05;24.37;;;21.00;;
6197;SDS011;3132;42.622;23.328;2024-03-02T06:41:30;29.37;;;22.13;;
6197;SDS011;3132;42.622;23.328;2024-03-02T06:43:56;28.57;;;20.80;;
6197;SDS011;3132;42.622;23.328;2024-03-02T06:46:25;27.97;;;20.73;;
6197;SDS011;3132;42.622;23.328;2024-03-02T06:48:53;31.87;;;22.20;;
6197;SDS011;3132;42.622;23.328;2024-03-02T06:51:18;29.80;;;22.03;;
6197;SDS011;3132;42.622;23.328;2024-03-02T06:53:44;36.07;;;22.80;;
6197;SDS011;3132;42.622;23.328;2024-03-02T06:56:09;35.47;;;25.63;;
6197;SDS011;3132;42.622;23.328;2024-03-02T06:58:34;37.00;;;25.13;;
6197;SDS011;3132;42.622;23.328;2024-03-02T07:01:00;36.37;;;23.73;;
6197;SDS011;3132;42.622;23.328;2024-03-02T07:03:28;33.27;;;23.63;;
6197;SDS011;3132;42.622;23.328;2024-03-02T07:05:53;36.27;;;22.67;;
6197;SDS011;3132;42.622;23.328;2024-03-02T07:08:19;30.20;;;22.20;;
6197;SDS011;3132;42.622;23.328;2024-03-02T07:10:44;30.73;;;22.23;;
6197;SDS011;3132;42.622;23.328;2024-03-02T07:13:09;25.97;;;20.13;;
6197;SDS011;3132;42.622;23.328;2024-03-02T07:15:35;28.60;;;21.27;;
6197;SDS011;3132;42.622;23.328;2024-03-02T07:18:26;28.37;;;22.13;;
6197;SDS011;3132;42.622;23.328;2024-03-02T07:20:51;31.03;;;21.60;;
6197;SDS011;3132;42.622;23.328;2024-03-02T07:23:17;32.07;;;21.93;;
6197;SDS011;3132;42.622;23.328;2024-03-02T07:25:42;31.83;;;21.87;;
6197;SDS011;3132;42.622;23.328;2024-03-02T07:28:07;27.30;;;21.30;;
6197;SDS011;3132;42.622;23.328;2024-03-02T07:30:33;33.50;;;22.03;;
6197;SDS011;3132;42.622;23.328;2024-03-02T07:32:58;34.27;;;22.50;;
6197;SDS011;3132;42.622;23.328;2024-03-02T07:35:24;28.13;;;22.33;;
6197;SDS011;3132;42.622;23.328;2024-03-02T07:37:52;27.40;;;22.17;;
6197;SDS011;3132;42.622;23.328;2024-03-02T07:40:18;30.30;;;21.33;;
6197;SDS011;3132;42.622;23.328;2024-03-02T07:42:44;26.07;;;19.93;;
6197;SDS011;3132;42.622;23.328;2024-03-02T07:45:10;28.97;;;23.73;;
6197;SDS011;3132;42.622;23.328;2024-03-02T07:47:36;31.17;;;20.93;;
6197;SDS011;3132;42.622;23.328;2024-03-02T07:50:01;31.00;;;26.77;;
6197;SDS011;3132;42.622;23.328;2024-03-02T07:52:27;30.53;;;21.90;;
6197;SDS011;3132;42.622;23.328;2024-03-02T07:54:53;29.77;;;21.17;;
6197;SDS011;3132;42.622;23.328;2024-03-02T07:57:19;31.57;;;23.10;;
6197;SDS011;3132;42.622;23.328;2024-03-02T07:59:44;27.67;;;21.77;;
6197;SDS011;3132;42.622;23.328;2024-03-02T08:02:10;29.93;;;21.50;;
6197;SDS011;3132;42.622;23.328;2024-03-02T08:04:35;28.13;;;20.47;;
6197;SDS011;3132;42.622;23.328;2024-03-02T08:07:02;32.37;;;23.13;;
6197;SDS011;3132;42.622;23.328;2024-03-02T08:09:27;31.10;;;22.27;;
6197;SDS011;3132;42.622;23.328;2024-03-02T08:11:53;31.73;;;22.93;;
6197;SDS011;3132;42.622;23.328;2024-03-02T08:14:18;36.00;;;24.23;;
6197;SDS011;3132;42.622;23.328;2024-03-02T08:16:43;31.20;;;23.93;;
6197;SDS011;3132;42.622;23.328;2024-03-02T08:19:10;35.90;;;23.77;;
6197;SDS011;3132;42.622;23.328;2024-03-02T08:21:36;35.53;;;23.00;;
6197;SDS011;3132;42.622;23.328;2024-03-02T08:24:02;35.10;;;23.30;;
6197;SDS011;3132;42.622;23.328;2024-03-02T08:26:27;29.70;;;22.70;;
6197;SDS011;3132;42.622;23.328;2024-03-02T08:28:57;35.33;;;23.67;;
6197;SDS011;3132;42.622;23.328;2024-03-02T08:31:23;35.47;;;23.90;;
6197;SDS011;3132;42.622;23.328;2024-03-02T08:33:48;35.47;;;23.73;;
6197;SDS011;3132;42.622;23.328;2024-03-02T08:36:13;35.17;;;24.53;;
6197;SDS011;3132;42.622;23.328;2024-03-02T08:38:39;34.77;;;23.13;;
6197;SDS011;3132;42.622;23.328;2024-03-02T08:41:05;38.73;;;24.30;;
6197;SDS011;3132;42.622;23.328;2024-03-02T08:43:32;35.47;;;24.40;;
6197;SDS011;3132;42.622;23.328;2024-03-02T08:45:58;30.60;;;22.60;;
6197;SDS011;3132;42.622;23.328;2024-03-02T08:48:23;35.63;;;23.70;;
6197;SDS011;3132;42.622;23.328;2024-03-02T08:50:48;34.23;;;22.67;;
6197;SDS011;3132;42.622;23.328;2024-03-02T08:53:14;30.67;;;22.70;;
6197;SDS011;3132;42.622;23.328;2024-03-02T08:55:43;29.90;;;22.33;;
6197;SDS011;3132;42.622;23.328;2024-03-02T08:58:10;31.70;;;22.40;;
6197;SDS011;3132;42.622;23.328;2024-03-02T09:00:35;28.53;;;21.53;;
6197;SDS011;3132;42.622;23.328;2024-03-02T09:03:01;27.87;;;22.17;;
6197;SDS011;3132;42.622;23.328;2024-03-02T09:05:26;26.43;;;20.83;;
6197;SDS011;3132;42.622;23.328;2024-03-02T09:07:51;31.30;;;21.97;;
6197;SDS011;3132;42.622;23.328;2024-03-02T09:10:17;25.70;;;21.70;;
6197;SDS011;3132;42.622;23.328;2024-03-02T09:12:42;26.63;;;21.00;;
6197;SDS011;3132;42.622;23.328;2024-03-02T09:15:08;26.80;;;20.27;;
6197;SDS011;3132;42.622;23.328;2024-03-02T09:17:33;28.07;;;21.20;;
6197;SDS011;3132;42.622;23.328;2024-03-02T09:19:59;28.10;;;21.70;;
6197;SDS011;3132;42.622;23.328;2024-03-02T09:22:24;25.30;;;21.03;;
6197;SDS011;3132;42.622;23.328;2024-03-02T09:24:49;29.77;;;21.80;;
6197;SDS011;3132;42.622;23.328;2024-03-02T09:27:15;25.57;;;20.60;;
6197;SDS011;3132;42.622;23.328;2024-03-02T09:29:40;21.73;;;19.20;;
6197;SDS011;3132;42.622;23.328;2024-03-02T09:32:06;27.57;;;20.80;;
6197;SDS011;3132;42.622;23.328;2024-03-02T09:34:32;29.17;;;21.20;;
6197;SDS011;3132;42.622;23.328;2024-03-02T09:36:57;25.13;;;19.70;;
6197;SDS011;3132;42.622;23.328;2024-03-02T09:39:23;22.63;;;20.10;;
6197;SDS011;3132;42.622;23.328;2024-03-02T09:41:50;26.67;;;20.50;;
6197;SDS011;3132;42.622;23.328;2024-03-02T09:44:16;25.63;;;19.63;;
6197;SDS011;3132;42.622;23.328;2024-03-02T09:46:41;23.67;;;20.67;;
6197;SDS011;3132;42.622;23.328;2024-03-02T09:49:09;24.47;;;19.20;;
6197;SDS011;3132;42.622;23.328;2024-03-02T09:51:37;28.17;;;20.63;;
6197;SDS011;3132;42.622;23.328;2024-03-02T09:54:03;26.97;;;20.40;;
6197;SDS011;3132;42.622;23.328;2024-03-02T09:56:29;27.10;;;20.37;;
6197;SDS011;3132;42.622;23.328;2024-03-02T09:58:54;24.67;;;20.13;;
6197;SDS011;3132;42.622;23.328;2024-03-02T10:01:19;20.30;;;17.53;;
6197;SDS011;3132;42.622;23.328;2024-03-02T10:03:45;21.53;;;18.47;;
6197;SDS011;3132;42.622;23.328;2024-03-02T10:06:18;23.37;;;18.53;;
6197;SDS011;3132;42.622;23.328;2024-03-02T10:08:44;26.27;;;19.23;;
6197;SDS011;3132;42.622;23.328;2024-03-02T10:11:10;25.33;;;20.43;;
6197;SDS011;3132;42.622;23.328;2024-03-02T10:13:35;29.20;;;21.27;;
6197;SDS011;3132;42.622;23.328;2024-03-02T10:16:10;28.07;;;21.40;;
6197;SDS011;3132;42.622;23.328;2024-03-02T10:18:36;33.33;;;22.40;;
6197;SDS011;3132;42.622;23.328;2024-03-02T10:21:14;28.50;;;21.83;;
6197;SDS011;3132;42.622;23.328;2024-03-02T10:23:40;32.00;;;22.90;;
6197;SDS011;3132;42.622;23.328;2024-03-02T10:26:17;30.17;;;21.90;;
6197;SDS011;3132;42.622;23.328;2024-03-02T10:28:46;32.53;;;22.30;;
6197;SDS011;3132;42.622;23.328;2024-03-02T10:31:12;32.43;;;23.03;;
6197;SDS011;3132;42.622;23.328;2024-03-02T10:33:38;34.43;;;23.93;;
6197;SDS011;3132;42.622;23.328;2024-03-02T10:36:04;32.73;;;23.20;;
6197;SDS011;3132;42.622;23.328;2024-03-02T10:38:30;34.67;;;22.80;;
6197;SDS011;3132;42.622;23.328;2024-03-02T10:40:56;31.17;;;22.27;;
6197;SDS011;3132;42.622;23.328;2024-03-02T10:43:24;37.27;;;24.17;;
6197;SDS011;3132;42.622;23.328;2024-03-02T10:45:51;31.37;;;23.13;;
6197;SDS011;3132;42.622;23.328;2024-03-02T10:48:17;34.83;;;23.70;;
6197;SDS011;3132;42.622;23.328;2024-03-02T10:50:43;33.13;;;23.60;;
6197;SDS011;3132;42.622;23.328;2024-03-02T10:53:08;34.07;;;24.83;;
6197;SDS011;3132;42.622;23.328;2024-03-02T10:55:34;42.43;;;26.57;;
6197;SDS011;3132;42.622;23.328;2024-03-02T10:57:59;37.83;;;24.80;;
6197;SDS011;3132;42.622;23.328;2024-03-02T11:00:27;38.63;;;25.57;;
6197;SDS011;3132;42.622;23.328;2024-03-02T11:03:02;45.23;;;26.47;;
6197;SDS011;3132;42.622;23.328;2024-03-02T11:05:36;36.60;;;24.00;;
6197;SDS011;3132;42.622;23.328;2024-03-02T11:08:07;40.73;;;26.03;;
6197;SDS011;3132;42.622;23.328;2024-03-02T11:10:34;40.50;;;24.93;;
6197;SDS011;3132;42.622;23.328;2024-03-02T11:13:05;40.93;;;26.73;;
6197;SDS011;3132;42.622;23.328;2024-03-02T11:15:34;40.00;;;26.33;;
6197;SDS011;3132;42.622;23.328;2024-03-02T11:18:04;38.57;;;24.97;;
6197;SDS011;3132;42.622;23.328;2024-03-02T11:20:33;39.23;;;25.37;;
6197;SDS011;3132;42.622;23.328;2024-03-02T11:23:06;33.83;;;23.37;;
6197;SDS011;3132;42.622;23.328;2024-03-02T11:25:33;35.10;;;24.13;;
6197;SDS011;3132;42.622;23.328;2024-03-02T11:27:59;35.67;;;24.80;;
6197;SDS011;3132;42.622;23.328;2024-03-02T11:32:56;37.47;;;24.60;;
6197;SDS011;3132;42.622;23.328;2024-03-02T11:35:24;37.63;;;24.10;;
6197;SDS011;3132;42.622;23.328;2024-03-02T11:37:51;36.00;;;24.93;;
6197;SDS011;3132;42.622;23.328;2024-03-02T11:40:21;37.13;;;24.53;;
6197;SDS011;3132;42.622;23.328;2024-03-02T11:42:47;33.77;;;22.67;;
6197;SDS011;3132;42.622;23.328;2024-03-02T11:45:16;34.77;;;22.27;;
6197;SDS011;3132;42.622;23.328;2024-03-02T11:47:46;34.80;;;23.87;;
6197;SDS011;3132;42.622;23.328;2024-03-02T11:50:15;29.00;;;22.50;;
6197;SDS011;3132;42.622;23.328;2024-03-02T11:52:40;34.40;;;23.17;;
6197;SDS011;3132;42.622;23.328;2024-03-02T11:55:07;31.37;;;22.40;;
6197;SDS011;3132;42.622;23.328;2024-03-02T11:57:34;32.13;;;22.37;;
6197;SDS011;3132;42.622;23.328;2024-03-02T12:00:00;32.60;;;23.37;;
6197;SDS011;3132;42.622;23.328;2024-03-02T12:02:28;31.83;;;23.73;;
6197;SDS011;3132;42.622;23.328;2024-03-02T12:04:54;36.63;;;23.73;;
6197;SDS011;3132;42.622;23.328;2024-03-02T12:07:20;38.07;;;26.00;;
6197;SDS011;3132;42.622;23.328;2024-03-02T12:09:59;32.03;;;23.00;;
6197;SDS011;3132;42.622;23.328;2024-03-02T12:12:28;33.97;;;23.70;;
6197;SDS011;3132;42.622;23.328;2024-03-02T12:14:53;33.27;;;23.57;;
6197;SDS011;3132;42.622;23.328;2024-03-02T12:17:20;33.00;;;23.80;;
6197;SDS011;3132;42.622;23.328;2024-03-02T12:19:46;35.63;;;24.70;;
6197;SDS011;3132;42.622;23.328;2024-03-02T12:22:12;35.30;;;24.40;;
6197;SDS011;3132;42.622;23.328;2024-03-02T12:24:37;35.57;;;23.60;;
6197;SDS011;3132;42.622;23.328;2024-03-02T12:27:03;33.60;;;23.93;;
6197;SDS011;3132;42.622;23.328;2024-03-02T12:29:30;32.63;;;22.60;;
6197;SDS011;3132;42.622;23.328;2024-03-02T12:31:55;30.27;;;22.33;;
6197;SDS011;3132;42.622;23.328;2024-03-02T12:34:22;30.43;;;21.33;;
6197;SDS011;3132;42.622;23.328;2024-03-02T12:36:48;29.63;;;23.93;;
6197;SDS011;3132;42.622;23.328;2024-03-02T12:39:17;32.60;;;22.23;;
6197;SDS011;3132;42.622;23.328;2024-03-02T12:41:44;31.83;;;22.57;;
6197;SDS011;3132;42.622;23.328;2024-03-02T12:44:10;29.40;;;22.17;;
6197;SDS011;3132;42.622;23.328;2024-03-02T12:46:36;32.50;;;22.93;;
6197;SDS011;3132;42.622;23.328;2024-03-02T12:49:07;35.23;;;24.90;;
6197;SDS011;3132;42.622;23.328;2024-03-02T12:51:35;34.53;;;24.77;;
6197;SDS011;3132;42.622;23.328;2024-03-02T12:54:01;39.07;;;24.23;;
6197;SDS011;3132;42.622;23.328;2024-03-02T12:56:26;30.80;;;23.93;;
6197;SDS011;3132;42.622;23.328;2024-03-02T12:58:55;32.77;;;24.17;;
6197;SDS011;3132;42.622;23.328;2024-03-02T13:01:21;31.83;;;22.47;;
6197;SDS011;3132;42.622;23.328;2024-03-02T13:03:49;30.93;;;23.83;;
6197;SDS011;3132;42.622;23.328;2024-03-02T13:06:16;30.47;;;24.00;;
6197;SDS011;3132;42.622;23.328;2024-03-02T13:08:42;36.23;;;25.47;;
6197;SDS011;3132;42.622;23.328;2024-03-02T13:11:07;27.80;;;22.23;;
6197;SDS011;3132;42.622;23.328;2024-03-02T13:13:33;33.00;;;23.13;;
6197;SDS011;3132;42.622;23.328;2024-03-02T13:16:00;29.83;;;24.17;;
6197;SDS011;3132;42.622;23.328;2024-03-02T13:18:25;34.80;;;25.20;;
6197;SDS011;3132;42.622;23.328;2024-03-02T13:20:51;31.03;;;23.13;;
6197;SDS011;3132;42.622;23.328;2024-03-02T13:23:17;27.37;;;22.80;;
6197;SDS011;3132;42.622;23.328;2024-03-02T13:25:42;34.43;;;23.70;;
6197;SDS011;3132;42.622;23.328;2024-03-02T13:28:08;33.07;;;23.53;;
6197;SDS011;3132;42.622;23.328;2024-03-02T13:30:33;30.73;;;22.97;;
6197;SDS011;3132;42.622;23.328;2024-03-02T13:32:59;29.23;;;23.70;;
6197;SDS011;3132;42.622;23.328;2024-03-02T13:35:24;35.03;;;25.17;;
6197;SDS011;3132;42.622;23.328;2024-03-02T13:37:50;36.90;;;25.60;;
6197;SDS011;3132;42.622;23.328;2024-03-02T13:40:15;35.77;;;25.30;;
6197;SDS011;3132;42.622;23.328;2024-03-02T13:42:42;33.80;;;24.43;;
6197;SDS011;3132;42.622;23.328;2024-03-02T13:45:08;35.40;;;24.03;;
6197;SDS011;3132;42.622;23.328;2024-03-02T13:47:33;33.17;;;24.63;;
6197;SDS011;3132;42.622;23.328;2024-03-02T13:49:58;35.93;;;25.50;;
6197;SDS011;3132;42.622;23.328;2024-03-02T13:52:24;36.77;;;25.33;;
6197;SDS011;3132;42.622;23.328;2024-03-02T13:54:51;35.27;;;26.20;;
6197;SDS011;3132;42.622;23.328;2024-03-02T13:57:17;35.17;;;24.90;;
6197;SDS011;3132;42.622;23.328;2024-03-02T13:59:44;36.97;;;24.60;;
6197;SDS011;3132;42.622;23.328;2024-03-02T14:02:10;33.80;;;25.47;;
6197;SDS011;3132;42.622;23.328;2024-03-02T14:04:37;38.63;;;24.50;;
6197;SDS011;3132;42.622;23.328;2024-03-02T14:07:02;37.47;;;26.33;;
6197;SDS011;3132;42.622;23.328;2024-03-02T14:09:29;34.33;;;26.20;;
6197;SDS011;3132;42.622;23.328;2024-03-02T14:11:54;35.00;;;25.80;;
6197;SDS011;3132;42.622;23.328;2024-03-02T14:14:20;37.83;;;26.00;;
6197;SDS011;3132;42.622;23.328;2024-03-02T14:16:46;35.87;;;27.13;;
6197;SDS011;3132;42.622;23.328;2024-03-02T14:19:11;35.60;;;24.80;;
6197;SDS011;3132;42.622;23.328;2024-03-02T14:21:37;37.17;;;26.83;;
6197;SDS011;3132;42.622;23.328;2024-03-02T14:24:03;37.17;;;25.40;;
6197;SDS011;3132;42.622;23.328;2024-03-02T14:26:29;38.77;;;25.03;;
6197;SDS011;3132;42.622;23.328;2024-03-02T14:28:55;38.57;;;26.70;;
6197;SDS011;3132;42.622;23.328;2024-03-02T14:31:20;38.57;;;24.53;;
6197;SDS011;3132;42.622;23.328;2024-03-02T14:33:46;37.67;;;26.13;;
6197;SDS011;3132;42.622;23.328;2024-03-02T14:36:11;36.37;;;25.63;;